Terminal Aerodrome Forecast
Issued by NWS Blacksburg, VA

Home | Current Version | Previous Version | Text Only | Print | Product List | Glossary On
Versions: 1 2 3 4 5 6 7 8 9 10 11 12 13 14 15 16 17 18 19 20 21 22 23 24 25 26 27 28 29 30 31 32 33 34 35 36 37 38 39 40 41 42 43
000
FTUS41 KRNK 192101 AAB
TAFROA
TAF AMD
KROA 192101Z 1921/2018 10010KT 4SM RA BR OVC015
      TEMPO 1921/1923 6SM -RA BR OVC030
     FM192300 13015G25KT 2SM -RA OVC007
     FM200500 19006KT 4SM BR OVC005
     FM201300 21007KT P6SM SCT006 OVC012
     FM201600 21009G19KT 3SM -TSRA SCT007 OVC015CB=

USA.gov is the U.S. government's official web portal to all federal, state and local government web resources and services.